createdAt,value
2019-04-20T00:01:22.881Z,43.00
2019-04-20T00:03:50.163Z,42.90
2019-04-20T00:06:21.655Z,43.00
2019-04-20T00:09:03.274Z,43.00
2019-04-20T00:11:31.125Z,43.00
2019-04-20T00:14:04.180Z,43.20
2019-04-20T00:16:31.541Z,43.80
2019-04-20T00:19:05.227Z,43.30
2019-04-20T00:22:02.006Z,43.40
2019-04-20T00:24:38.605Z,43.30
2019-04-20T00:27:32.978Z,43.30
2019-04-20T00:30:00.341Z,43.40
2019-04-20T00:32:29.998Z,43.40
2019-04-20T00:34:49.547Z,43.40
2019-04-20T00:37:21.170Z,43.50
2019-04-20T00:39:53.042Z,43.50
2019-04-20T00:42:33.149Z,43.50
2019-04-20T00:45:05.865Z,43.50
2019-04-20T00:47:37.573Z,43.60
2019-04-20T00:50:19.643Z,43.60
2019-04-20T00:52:51.751Z,43.40
2019-04-20T00:55:08.265Z,43.10
2019-04-20T00:57:49.582Z,43.10
2019-04-20T01:00:27.133Z,42.90
2019-04-20T01:02:54.109Z,42.70
2019-04-20T01:05:53.311Z,42.50
2019-04-20T01:08:19.622Z,42.40
2019-04-20T01:10:54.093Z,42.40
2019-04-20T01:13:25.153Z,42.50
2019-04-20T01:16:04.738Z,42.60
2019-04-20T01:18:28.442Z,42.70
2019-04-20T01:21:06.855Z,42.70
2019-04-20T01:23:41.592Z,42.70
2019-04-20T01:26:09.306Z,42.80
2019-04-20T01:28:51.223Z,42.90
2019-04-20T01:31:18.434Z,42.70
2019-04-20T01:33:54.183Z,42.90
2019-04-20T01:36:33.508Z,42.90
2019-04-20T01:39:01.412Z,42.90
2019-04-20T01:41:20.302Z,43.00
2019-04-20T01:43:52.274Z,43.10
2019-04-20T01:46:26.369Z,43.10
2019-04-20T01:48:59.941Z,43.20
2019-04-20T01:51:37.425Z,43.20
2019-04-20T01:54:23.461Z,43.30
2019-04-20T01:56:54.918Z,43.30
2019-04-20T01:59:37.146Z,43.40
2019-04-20T02:02:11.678Z,43.40
2019-04-20T02:04:45.979Z,43.40
2019-04-20T02:07:18.269Z,43.50
2019-04-20T02:09:53.532Z,43.50
2019-04-20T02:12:25.379Z,43.60
2019-04-20T02:14:58.958Z,43.50
2019-04-20T02:17:59.569Z,43.50
2019-04-20T02:21:04.075Z,43.50
2019-04-20T02:23:33.820Z,43.40
2019-04-20T02:26:18.037Z,43.10
2019-04-20T02:29:35.071Z,42.90
2019-04-20T02:32:22.509Z,42.70
2019-04-20T02:35:13.744Z,42.50
2019-04-20T02:38:16.249Z,42.50
2019-04-20T02:40:46.860Z,42.50
2019-04-20T02:43:15.353Z,42.50
2019-04-20T02:45:57.447Z,42.70
2019-04-20T02:48:41.230Z,42.70
2019-04-20T02:54:16.571Z,42.90
2019-04-20T02:56:47.961Z,42.90
2019-04-20T02:59:42.263Z,43.00
2019-04-20T03:01:58.008Z,43.10
2019-04-20T03:04:25.664Z,43.20
2019-04-20T03:07:09.080Z,43.20
2019-04-20T03:09:48.527Z,43.20
2019-04-20T03:12:23.530Z,43.30
2019-04-20T03:15:09.418Z,43.90
2019-04-20T03:18:10.440Z,43.30
2019-04-20T03:20:45.965Z,43.30
2019-04-20T03:23:36.170Z,43.40
2019-04-20T03:26:05.398Z,43.30
2019-04-20T03:29:11.381Z,43.30
2019-04-20T03:32:44.986Z,43.30
2019-04-20T03:35:00.996Z,43.30
2019-04-20T03:37:21.789Z,43.30
2019-04-20T03:40:37.295Z,43.40
2019-04-20T03:42:54.947Z,43.40
2019-04-20T03:45:28.110Z,43.40
2019-04-20T03:48:09.034Z,43.40
2019-04-20T03:50:52.843Z,43.40
2019-04-20T03:53:39.408Z,43.40
2019-04-20T03:56:10.028Z,43.20
2019-04-20T03:59:00.420Z,43.10
2019-04-20T04:04:57.581Z,42.80
2019-04-20T04:07:17.955Z,42.50
2019-04-20T04:10:14.084Z,42.60
2019-04-20T04:13:23.064Z,42.60
2019-04-20T04:15:59.253Z,42.80
2019-04-20T04:18:33.284Z,42.90
2019-04-20T04:21:03.648Z,43.00
2019-04-20T04:23:48.932Z,43.10
2019-04-20T04:26:27.531Z,43.10
2019-04-20T04:29:25.717Z,43.20
2019-04-20T04:32:12.091Z,43.30
2019-04-20T04:34:48.639Z,43.20
2019-04-20T04:37:24.182Z,43.20
2019-04-20T04:40:23.621Z,43.30
2019-04-20T04:42:46.498Z,43.30
2019-04-20T04:45:03.930Z,43.00
2019-04-20T04:47:30.442Z,43.30
2019-04-20T04:50:09.581Z,43.30
2019-04-20T04:52:45.353Z,43.30
2019-04-20T04:55:24.918Z,43.30
2019-04-20T04:57:43.252Z,43.30
2019-04-20T05:00:19.951Z,43.30
2019-04-20T05:02:53.797Z,43.30
2019-04-20T05:05:55.489Z,43.30
2019-04-20T05:08:40.728Z,43.90
2019-04-20T05:11:06.912Z,43.30
2019-04-20T05:13:47.865Z,43.30
2019-04-20T05:16:33.752Z,43.30
2019-04-20T05:19:07.718Z,43.30
2019-04-20T05:25:08.497Z,43.20
2019-04-20T05:27:51.279Z,43.10
2019-04-20T05:30:05.685Z,42.90
2019-04-20T05:32:46.943Z,42.60
2019-04-20T05:35:32.474Z,42.60
2019-04-20T05:38:12.044Z,42.50
2019-04-20T05:41:09.903Z,42.50
2019-04-20T05:43:45.186Z,42.60
2019-04-20T05:46:22.085Z,42.70
2019-04-20T05:49:14.057Z,42.80
2019-04-20T05:54:13.500Z,43.10
2019-04-20T05:59:16.239Z,43.10
2019-04-20T06:02:11.213Z,43.20
2019-04-20T06:04:54.549Z,43.20
2019-04-20T06:07:15.535Z,43.20
2019-04-20T06:09:47.892Z,43.20
2019-04-20T06:12:23.297Z,43.20
2019-04-20T06:15:22.422Z,43.20
2019-04-20T06:18:15.070Z,43.30
2019-04-20T06:20:52.402Z,43.30
2019-04-20T06:23:47.508Z,43.30
2019-04-20T06:26:33.183Z,43.40
2019-04-20T06:28:53.931Z,43.80
2019-04-20T06:31:35.885Z,43.20
2019-04-20T06:34:38.710Z,43.20
2019-04-20T06:37:21.415Z,43.10
2019-04-20T06:42:59.667Z,43.10
2019-04-20T06:45:36.351Z,43.10
2019-04-20T06:48:40.469Z,43.10
2019-04-20T06:51:27.665Z,43.10
2019-04-20T06:54:19.888Z,43.10
2019-04-20T06:57:19.605Z,43.20
2019-04-20T07:00:30.847Z,43.20
2019-04-20T07:03:37.631Z,43.20
2019-04-20T07:06:42.145Z,42.90
2019-04-20T07:09:01.413Z,43.00
2019-04-20T07:11:46.428Z,42.70
2019-04-20T07:14:27.518Z,42.60
2019-04-20T07:17:29.226Z,42.50
2019-04-20T07:20:10.318Z,42.80
2019-04-20T07:23:25.399Z,43.00
2019-04-20T07:25:55.629Z,43.10
2019-04-20T07:28:53.049Z,43.20
2019-04-20T07:31:23.229Z,43.30
2019-04-20T07:34:22.922Z,43.30
2019-04-20T07:38:10.299Z,43.30
2019-04-20T07:40:24.446Z,43.40
2019-04-20T07:43:07.685Z,43.40
2019-04-20T07:45:55.905Z,43.40
2019-04-20T07:48:42.245Z,43.40
2019-04-20T07:51:27.807Z,43.30
2019-04-20T07:54:30.313Z,43.20
2019-04-20T07:56:53.861Z,43.20
2019-04-20T07:59:43.608Z,43.20
2019-04-20T08:02:57.373Z,43.20
2019-04-20T08:05:44.362Z,43.10
2019-04-20T08:08:40.307Z,43.10
2019-04-20T08:11:13.812Z,43.10
2019-04-20T08:14:22.204Z,43.10
2019-04-20T08:17:14.074Z,43.20
2019-04-20T08:19:59.662Z,43.30
2019-04-20T08:23:12.920Z,43.30
2019-04-20T08:25:38.771Z,43.40
2019-04-20T08:28:56.764Z,43.50
2019-04-20T08:32:03.229Z,43.60
2019-04-20T08:34:52.201Z,43.60
2019-04-20T08:37:17.274Z,43.30
2019-04-20T08:40:01.474Z,43.10
2019-04-20T08:42:39.862Z,43.00
2019-04-20T08:45:31.636Z,42.80
2019-04-20T08:48:42.480Z,42.60
2019-04-20T08:51:59.959Z,43.10
2019-04-20T08:55:18.087Z,42.70
2019-04-20T08:57:31.383Z,43.10
2019-04-20T09:00:04.724Z,43.10
2019-04-20T09:02:35.178Z,43.20
2019-04-20T09:05:26.537Z,43.20
2019-04-20T09:08:09.331Z,43.20
2019-04-20T09:11:05.877Z,43.10
2019-04-20T09:13:31.600Z,43.10
2019-04-20T09:15:55.617Z,43.00
2019-04-20T09:19:03.648Z,43.10
2019-04-20T09:21:40.558Z,43.10
2019-04-20T09:24:33.028Z,43.00
2019-04-20T09:27:21.842Z,43.00
2019-04-20T09:30:21.175Z,43.00
2019-04-20T09:33:09.296Z,43.00
2019-04-20T09:35:48.599Z,43.00
2019-04-20T09:38:56.663Z,43.10
2019-04-20T09:41:59.895Z,43.00
2019-04-20T09:44:47.775Z,43.10
2019-04-20T09:47:23.542Z,43.10
2019-04-20T09:50:37.071Z,43.20
2019-04-20T09:53:24.879Z,43.20
2019-04-20T09:56:15.359Z,43.20
2019-04-20T09:58:52.117Z,43.20
2019-04-20T10:01:34.032Z,43.30
2019-04-20T10:04:23.947Z,43.30
2019-04-20T10:07:14.212Z,43.30
2019-04-20T10:09:45.612Z,43.10
2019-04-20T10:12:23.727Z,42.90
2019-04-20T10:15:25.060Z,42.80
2019-04-20T10:18:15.992Z,42.70
2019-04-20T10:20:49.518Z,42.80
2019-04-20T10:23:24.819Z,42.80
2019-04-20T10:26:18.972Z,42.80
2019-04-20T10:28:51.821Z,42.80
2019-04-20T10:31:28.601Z,42.80
2019-04-20T10:34:22.169Z,42.80
2019-04-20T10:37:17.822Z,42.80
2019-04-20T10:40:07.918Z,42.90
2019-04-20T10:42:59.518Z,42.90
2019-04-20T10:45:50.940Z,42.90
2019-04-20T10:48:53.254Z,43.00
2019-04-20T10:51:33.639Z,43.00
2019-04-20T10:54:32.368Z,43.00
2019-04-20T10:57:17.459Z,43.00
2019-04-20T10:59:49.739Z,43.00
2019-04-20T11:02:47.414Z,43.10
2019-04-20T11:05:18.745Z,43.20
2019-04-20T11:07:54.707Z,43.30
2019-04-20T11:10:29.254Z,43.30
2019-04-20T11:13:25.797Z,43.40
2019-04-20T11:15:57.287Z,43.40
2019-04-20T11:18:49.340Z,43.40
2019-04-20T11:21:24.669Z,43.40
2019-04-20T11:24:00.395Z,43.50
2019-04-20T11:27:07.792Z,43.50
2019-04-20T11:29:55.986Z,44.10
2019-04-20T11:32:46.310Z,44.20
2019-04-20T11:35:39.324Z,43.60
2019-04-20T11:38:46.991Z,43.70
2019-04-20T11:41:51.684Z,43.70
2019-04-20T11:44:23.758Z,43.80
2019-04-20T11:47:33.739Z,43.70
2019-04-20T11:50:23.633Z,43.70
2019-04-20T11:53:15.362Z,43.70
2019-04-20T11:55:48.808Z,44.30
2019-04-20T11:58:23.857Z,43.70
2019-04-20T12:01:39.223Z,43.70
2019-04-20T12:04:40.417Z,43.70
2019-04-20T12:07:40.556Z,43.70
2019-04-20T12:10:20.973Z,43.70
2019-04-20T12:13:13.322Z,43.80
2019-04-20T12:16:11.743Z,43.70
2019-04-20T12:19:15.725Z,43.80
2019-04-20T12:21:49.979Z,43.90
2019-04-20T12:24:24.381Z,43.80
2019-04-20T12:27:04.861Z,43.80
2019-04-20T12:29:38.618Z,43.90
2019-04-20T12:32:10.742Z,43.90
2019-04-20T12:34:50.176Z,44.00
2019-04-20T12:37:56.994Z,44.00
2019-04-20T12:40:50.232Z,44.00
2019-04-20T12:43:32.239Z,43.90
2019-04-20T12:46:28.038Z,44.00
2019-04-20T12:49:37.775Z,44.10
2019-04-20T12:52:10.266Z,44.00
2019-04-20T12:55:02.726Z,44.20
2019-04-20T12:58:00.631Z,44.20
2019-04-20T13:00:50.211Z,44.20
2019-04-20T13:03:21.707Z,44.20
2019-04-20T13:06:10.529Z,44.80
2019-04-20T13:08:52.310Z,44.10
2019-04-20T13:11:56.781Z,44.30
2019-04-20T13:15:38.312Z,44.20
2019-04-20T13:18:41.424Z,44.20
2019-04-20T13:21:14.748Z,44.30
2019-04-20T13:23:56.492Z,44.30
2019-04-20T13:26:35.067Z,44.30
2019-04-20T13:29:38.330Z,44.30
2019-04-20T13:32:09.768Z,44.30
2019-04-20T13:35:20.459Z,44.40
2019-04-20T13:38:09.765Z,44.30
2019-04-20T13:40:49.813Z,44.40
2019-04-20T13:43:26.325Z,44.30
2019-04-20T13:46:11.062Z,44.40
2019-04-20T13:49:11.258Z,44.30
2019-04-20T13:51:42.160Z,44.30
2019-04-20T13:54:23.999Z,44.50
2019-04-20T13:57:01.846Z,44.40
2019-04-20T13:59:41.890Z,44.60
2019-04-20T14:02:23.077Z,44.40
2019-04-20T14:05:02.765Z,44.50
2019-04-20T14:07:41.733Z,44.40
2019-04-20T14:10:15.438Z,44.40
2019-04-20T14:13:15.124Z,44.60
2019-04-20T14:15:45.081Z,44.50
2019-04-20T14:18:17.751Z,44.50
2019-04-20T14:21:02.753Z,44.50
2019-04-20T14:24:04.363Z,44.60
2019-04-20T14:26:45.798Z,44.50
2019-04-20T14:29:43.225Z,44.50
2019-04-20T14:32:20.857Z,44.60
2019-04-20T14:35:11.373Z,44.50
2019-04-20T14:38:05.888Z,44.60
2019-04-20T14:40:37.181Z,45.20
2019-04-20T14:43:11.049Z,44.70
2019-04-20T14:45:47.049Z,44.60
2019-04-20T14:48:18.563Z,44.50
2019-04-20T14:50:49.755Z,44.60
2019-04-20T14:53:20.641Z,44.70
2019-04-20T14:55:51.417Z,44.70
2019-04-20T14:58:45.278Z,44.70
2019-04-20T15:01:27.390Z,44.70
2019-04-20T15:04:04.889Z,44.60
2019-04-20T15:06:33.350Z,44.60
2019-04-20T15:09:06.451Z,44.60
2019-04-20T15:11:39.652Z,44.60
2019-04-20T15:14:11.036Z,44.70
2019-04-20T15:16:42.678Z,44.60
2019-04-20T15:19:47.675Z,44.60
2019-04-20T15:22:53.754Z,44.60
2019-04-20T15:25:25.493Z,44.60
2019-04-20T15:27:56.496Z,44.70
2019-04-20T15:30:27.447Z,44.70
2019-04-20T15:32:59.070Z,44.70
2019-04-20T15:35:30.355Z,44.70
2019-04-20T15:38:01.376Z,44.70
2019-04-20T15:40:33.050Z,44.60
2019-04-20T15:43:11.832Z,44.80
2019-04-20T15:45:37.095Z,44.70
2019-04-20T15:48:08.054Z,44.80
2019-04-20T15:50:39.991Z,44.80
2019-04-20T15:53:11.447Z,44.80
2019-04-20T15:55:43.822Z,44.80
2019-04-20T15:58:16.308Z,44.80
2019-04-20T16:00:47.772Z,44.80
2019-04-20T16:03:41.270Z,44.80
2019-04-20T16:06:13.557Z,44.80
2019-04-20T16:08:48.342Z,44.80
2019-04-20T16:11:19.376Z,44.80
2019-04-20T16:13:53.914Z,44.80
2019-04-20T16:16:23.844Z,44.80
2019-04-20T16:18:55.033Z,44.80
2019-04-20T16:21:28.491Z,44.70
2019-04-20T16:24:12.958Z,44.80
2019-04-20T16:27:02.816Z,44.80
2019-04-20T16:29:33.723Z,44.90
2019-04-20T16:32:04.778Z,44.80
2019-04-20T16:34:37.174Z,44.90
2019-04-20T16:37:08.677Z,44.80
2019-04-20T16:39:40.723Z,44.80
2019-04-20T16:42:14.097Z,44.80
2019-04-20T16:44:45.303Z,44.80
2019-04-20T16:47:16.495Z,44.80
2019-04-20T16:49:48.713Z,44.80
2019-04-20T16:52:21.187Z,44.80
2019-04-20T16:54:51.929Z,44.70
2019-04-20T16:57:23.682Z,44.80
2019-04-20T16:59:57.793Z,44.80
2019-04-20T17:02:27.481Z,44.80
2019-04-20T17:04:58.880Z,44.80
2019-04-20T17:07:39.559Z,44.90
2019-04-20T17:10:11.853Z,44.90
2019-04-20T17:12:43.845Z,44.80
2019-04-20T17:15:15.866Z,44.80
2019-04-20T17:17:49.268Z,44.90
2019-04-20T17:20:19.807Z,44.80
2019-04-20T17:22:50.811Z,45.50
2019-04-20T17:25:21.889Z,44.90
2019-04-20T17:28:24.815Z,44.90
2019-04-20T17:31:04.540Z,45.00
2019-04-20T17:33:50.707Z,45.00
2019-04-20T17:36:18.514Z,44.90
2019-04-20T17:38:48.464Z,45.50
2019-04-20T17:41:38.694Z,44.90
2019-04-20T17:44:08.597Z,44.90
2019-04-20T17:46:36.769Z,44.90
2019-04-20T17:49:09.638Z,44.90
2019-04-20T17:51:47.283Z,44.90
2019-04-20T17:54:22.404Z,44.90
2019-04-20T17:56:54.323Z,44.90
2019-04-20T17:59:26.200Z,44.80
2019-04-20T18:02:30.591Z,44.80
2019-04-20T18:05:26.928Z,44.80
2019-04-20T18:07:58.882Z,44.70
2019-04-20T18:10:26.421Z,44.90
2019-04-20T18:12:46.468Z,44.90
2019-04-20T18:15:31.277Z,45.00
2019-04-20T18:18:30.143Z,44.90
2019-04-20T18:21:12.832Z,44.90
2019-04-20T18:23:46.595Z,44.80
2019-04-20T18:26:40.944Z,44.80
2019-04-20T18:29:10.768Z,44.80
2019-04-20T18:31:39.592Z,44.80
2019-04-20T18:34:18.889Z,44.90
2019-04-20T18:36:48.267Z,44.90
2019-04-20T18:39:32.966Z,44.90
2019-04-20T18:41:57.414Z,44.80
2019-04-20T18:44:30.542Z,44.90
2019-04-20T18:47:18.152Z,44.80
2019-04-20T18:49:41.928Z,44.90
2019-04-20T18:52:03.866Z,44.90
2019-04-20T18:54:40.011Z,45.40
2019-04-20T18:57:14.307Z,44.90
2019-04-20T18:59:45.622Z,44.90
2019-04-20T19:02:17.389Z,44.80
2019-04-20T19:04:45.859Z,44.90
2019-04-20T19:07:17.558Z,44.80
2019-04-20T19:09:52.284Z,44.70
2019-04-20T19:12:28.497Z,44.80
2019-04-20T19:15:18.679Z,44.80
2019-04-20T19:18:15.654Z,44.80
2019-04-20T19:20:41.238Z,44.80
2019-04-20T19:23:12.239Z,44.80
2019-04-20T19:25:44.223Z,44.80
2019-04-20T19:28:20.725Z,45.30
2019-04-20T19:31:02.889Z,44.70
2019-04-20T19:33:33.257Z,44.70
2019-04-20T19:36:04.847Z,44.70
2019-04-20T19:38:37.990Z,44.70
2019-04-20T19:41:16.441Z,44.80
2019-04-20T19:43:41.120Z,44.80
2019-04-20T19:48:45.122Z,44.80
2019-04-20T19:51:28.496Z,44.80
2019-04-20T19:54:04.942Z,44.70
2019-04-20T19:56:32.392Z,44.80
2019-04-20T19:59:06.565Z,44.80
2019-04-20T20:01:19.874Z,44.60
2019-04-20T20:03:56.296Z,44.80
2019-04-20T20:06:29.331Z,44.70
2019-04-20T20:09:01.877Z,44.70
2019-04-20T20:11:34.034Z,44.70
2019-04-20T20:14:04.336Z,44.80
2019-04-20T20:16:54.829Z,44.70
2019-04-20T20:19:14.200Z,44.80
2019-04-20T20:21:56.397Z,44.80
2019-04-20T20:24:14.281Z,44.70
2019-04-20T20:26:52.661Z,44.60
2019-04-20T20:29:27.686Z,44.60
2019-04-20T20:32:05.097Z,44.60
2019-04-20T20:34:29.092Z,44.50
2019-04-20T20:37:00.468Z,44.60
2019-04-20T20:39:31.719Z,44.60
2019-04-20T20:42:14.302Z,44.50
2019-04-20T20:44:41.249Z,44.50
2019-04-20T20:47:31.301Z,44.60
2019-04-20T20:50:06.924Z,44.40
2019-04-20T20:52:27.316Z,44.40
2019-04-20T20:54:56.424Z,44.50
2019-04-20T20:57:22.347Z,44.40
2019-04-20T20:59:55.250Z,44.40
2019-04-20T21:02:33.889Z,44.40
2019-04-20T21:04:55.467Z,44.40
2019-04-20T21:07:26.694Z,44.40
2019-04-20T21:09:58.715Z,44.40
2019-04-20T21:12:30.579Z,44.50
2019-04-20T21:15:10.608Z,44.40
2019-04-20T21:17:41.374Z,44.60
2019-04-20T21:20:20.180Z,44.60
2019-04-20T21:22:57.526Z,44.70
2019-04-20T21:25:19.006Z,44.60
2019-04-20T21:27:50.875Z,44.60
2019-04-20T21:30:29.140Z,44.50
2019-04-20T21:32:59.093Z,44.50
2019-04-20T21:35:31.362Z,44.50
2019-04-20T21:38:06.198Z,44.50
2019-04-20T21:40:39.364Z,44.50
2019-04-20T21:43:07.440Z,44.60
2019-04-20T21:45:38.055Z,44.40
2019-04-20T21:48:31.292Z,44.40
2019-04-20T21:50:58.377Z,44.40
2019-04-20T21:53:22.569Z,44.50
2019-04-20T21:55:47.971Z,44.40
2019-04-20T21:58:27.154Z,44.40
2019-04-20T22:01:09.242Z,44.40
2019-04-20T22:03:32.060Z,44.40
2019-04-20T22:06:08.952Z,44.40
2019-04-20T22:08:45.934Z,44.40
2019-04-20T22:11:13.321Z,44.30
2019-04-20T22:13:46.414Z,44.30
2019-04-20T22:16:18.970Z,44.50
2019-04-20T22:18:59.327Z,44.40
2019-04-20T22:21:31.399Z,44.40
2019-04-20T22:24:09.477Z,44.40
2019-04-20T22:26:34.165Z,44.50
2019-04-20T22:29:00.471Z,44.50
2019-04-20T22:31:31.948Z,44.50
2019-04-20T22:34:10.412Z,44.50
2019-04-20T22:36:41.413Z,44.40
2019-04-20T22:39:23.572Z,44.40
2019-04-20T22:42:00.179Z,44.40
2019-04-20T22:44:30.561Z,44.40
2019-04-20T22:47:00.527Z,44.40
2019-04-20T22:49:44.096Z,44.40
2019-04-20T22:52:18.570Z,44.40
2019-04-20T22:54:54.352Z,44.50
2019-04-20T22:57:29.503Z,44.40
2019-04-20T22:59:51.838Z,44.50
2019-04-20T23:02:16.313Z,44.40
2019-04-20T23:04:46.987Z,44.50
2019-04-20T23:07:18.829Z,44.40
2019-04-20T23:09:54.033Z,44.40
2019-04-20T23:12:23.796Z,44.30
2019-04-20T23:14:56.352Z,44.30
2019-04-20T23:17:35.914Z,44.30
2019-04-20T23:20:03.215Z,44.30
2019-04-20T23:22:36.999Z,44.50
2019-04-20T23:25:05.476Z,44.50
2019-04-20T23:27:37.310Z,44.50
2019-04-20T23:30:13.507Z,44.40
2019-04-20T23:32:42.232Z,44.00
2019-04-20T23:35:18.104Z,44.50
2019-04-20T23:37:46.499Z,44.50
2019-04-20T23:40:17.750Z,45.20
2019-04-20T23:42:58.024Z,44.60
2019-04-20T23:45:52.742Z,44.70
2019-04-20T23:48:35.634Z,44.70
2019-04-20T23:51:24.972Z,44.70
2019-04-20T23:53:47.892Z,44.70
2019-04-20T23:56:13.410Z,44.70
2019-04-20T23:58:46.397Z,44.60
